West Friendship, Maryland
Current Conditions -  °F | °C
As of 6:15 AM on Sunday 23 Nov 2014 (Local Time) from KGAI Reporting Station
Clear Clear  
Wind Chill: 36°   Ceiling: Unl
Heat Index: 36°   Visibility: 10mi
Dew Point: 18°   Wind: 0mph
Humidity: 48%   Direction: NA
Pressure: 30.23"   Gusts: NA
Location:  39.3°N, 76.95°W
Report Text: KGAI 231115Z 00000KT 10SM CLR 02/M08 A3023 RMK AO1
Loading
Personal Weather Stations






























Interactive Weather Map New forecast layout! Learn more

10-Day Weather Forecast

Advertisements
Track Severe Weather on mobile